sensor_id;sensor_type;location;lat;lon;timestamp;P1;durP1;ratioP1;P2;durP2;ratioP2
78750;SDS011;68070;50.954;11.060;2023-04-25T00:00:55;4.40;;;2.20;;
78750;SDS011;68070;50.954;11.060;2023-04-25T00:03:40;4.30;;;2.10;;
78750;SDS011;68070;50.954;11.060;2023-04-25T00:06:24;7.00;;;2.80;;
78750;SDS011;68070;50.954;11.060;2023-04-25T00:09:10;4.90;;;2.70;;
78750;SDS011;68070;50.954;11.060;2023-04-25T00:11:55;5.00;;;3.70;;
78750;SDS011;68070;50.954;11.060;2023-04-25T00:14:39;3.90;;;2.40;;
78750;SDS011;68070;50.954;11.060;2023-04-25T00:17:24;5.90;;;3.30;;
78750;SDS011;68070;50.954;11.060;2023-04-25T00:20:11;5.80;;;3.10;;
78750;SDS011;68070;50.954;11.060;2023-04-25T00:22:56;5.00;;;2.90;;
78750;SDS011;68070;50.954;11.060;2023-04-25T00:25:40;3.90;;;3.20;;
78750;SDS011;68070;50.954;11.060;2023-04-25T00:28:24;7.70;;;3.80;;
78750;SDS011;68070;50.954;11.060;2023-04-25T00:31:09;5.70;;;3.40;;
78750;SDS011;68070;50.954;11.060;2023-04-25T00:33:54;7.20;;;3.00;;
78750;SDS011;68070;50.954;11.060;2023-04-25T00:36:38;3.60;;;2.60;;
78750;SDS011;68070;50.954;11.060;2023-04-25T00:39:23;5.30;;;3.70;;
78750;SDS011;68070;50.954;11.060;2023-04-25T00:42:07;6.20;;;3.80;;
78750;SDS011;68070;50.954;11.060;2023-04-25T00:44:52;4.60;;;3.40;;
78750;SDS011;68070;50.954;11.060;2023-04-25T00:47:37;5.30;;;2.90;;
78750;SDS011;68070;50.954;11.060;2023-04-25T00:50:22;7.20;;;3.50;;
78750;SDS011;68070;50.954;11.060;2023-04-25T00:53:07;5.10;;;4.00;;
78750;SDS011;68070;50.954;11.060;2023-04-25T00:55:53;7.10;;;3.00;;
78750;SDS011;68070;50.954;11.060;2023-04-25T00:58:39;5.10;;;2.70;;
78750;SDS011;68070;50.954;11.060;2023-04-25T01:01:24;6.80;;;3.30;;
78750;SDS011;68070;50.954;11.060;2023-04-25T01:04:09;5.00;;;4.10;;
78750;SDS011;68070;50.954;11.060;2023-04-25T01:06:54;4.40;;;2.70;;
78750;SDS011;68070;50.954;11.060;2023-04-25T01:09:38;8.00;;;3.10;;
78750;SDS011;68070;50.954;11.060;2023-04-25T01:12:24;5.30;;;3.50;;
78750;SDS011;68070;50.954;11.060;2023-04-25T01:15:09;5.00;;;3.50;;
78750;SDS011;68070;50.954;11.060;2023-04-25T01:17:54;5.00;;;3.00;;
78750;SDS011;68070;50.954;11.060;2023-04-25T01:20:39;6.70;;;4.70;;
78750;SDS011;68070;50.954;11.060;2023-04-25T01:23:26;4.70;;;2.90;;
78750;SDS011;68070;50.954;11.060;2023-04-25T01:30:04;5.00;;;2.80;;
78750;SDS011;68070;50.954;11.060;2023-04-25T01:32:50;8.10;;;3.60;;
78750;SDS011;68070;50.954;11.060;2023-04-25T01:35:35;5.50;;;3.20;;
78750;SDS011;68070;50.954;11.060;2023-04-25T01:38:19;7.80;;;4.10;;
78750;SDS011;68070;50.954;11.060;2023-04-25T01:41:04;5.90;;;3.70;;
78750;SDS011;68070;50.954;11.060;2023-04-25T01:43:49;4.70;;;3.00;;
78750;SDS011;68070;50.954;11.060;2023-04-25T01:46:33;2.80;;;1.80;;
78750;SDS011;68070;50.954;11.060;2023-04-25T01:49:18;5.90;;;2.50;;
78750;SDS011;68070;50.954;11.060;2023-04-25T01:52:03;4.40;;;2.90;;
78750;SDS011;68070;50.954;11.060;2023-04-25T01:54:49;4.10;;;2.90;;
78750;SDS011;68070;50.954;11.060;2023-04-25T01:57:36;4.50;;;2.50;;
78750;SDS011;68070;50.954;11.060;2023-04-25T02:00:21;4.60;;;2.60;;
78750;SDS011;68070;50.954;11.060;2023-04-25T02:03:05;5.00;;;2.80;;
78750;SDS011;68070;50.954;11.060;2023-04-25T02:05:51;4.60;;;2.70;;
78750;SDS011;68070;50.954;11.060;2023-04-25T02:08:36;4.90;;;2.20;;
78750;SDS011;68070;50.954;11.060;2023-04-25T02:11:21;3.60;;;2.10;;
78750;SDS011;68070;50.954;11.060;2023-04-25T02:14:15;3.70;;;2.30;;
78750;SDS011;68070;50.954;11.060;2023-04-25T02:17:20;4.90;;;2.30;;
78750;SDS011;68070;50.954;11.060;2023-04-25T02:20:05;4.10;;;2.80;;
78750;SDS011;68070;50.954;11.060;2023-04-25T02:22:50;2.90;;;2.20;;
78750;SDS011;68070;50.954;11.060;2023-04-25T02:25:35;3.40;;;2.00;;
78750;SDS011;68070;50.954;11.060;2023-04-25T02:28:19;5.10;;;2.40;;
78750;SDS011;68070;50.954;11.060;2023-04-25T02:31:04;4.20;;;2.10;;
78750;SDS011;68070;50.954;11.060;2023-04-25T02:33:48;6.20;;;4.20;;
78750;SDS011;68070;50.954;11.060;2023-04-25T02:36:33;5.30;;;3.00;;
78750;SDS011;68070;50.954;11.060;2023-04-25T02:39:19;4.40;;;3.10;;
78750;SDS011;68070;50.954;11.060;2023-04-25T02:42:06;4.70;;;2.80;;
78750;SDS011;68070;50.954;11.060;2023-04-25T02:44:50;7.30;;;4.20;;
78750;SDS011;68070;50.954;11.060;2023-04-25T02:47:34;5.50;;;4.00;;
78750;SDS011;68070;50.954;11.060;2023-04-25T02:50:19;5.30;;;3.60;;
78750;SDS011;68070;50.954;11.060;2023-04-25T02:53:04;8.70;;;3.60;;
78750;SDS011;68070;50.954;11.060;2023-04-25T02:55:53;6.70;;;4.70;;
78750;SDS011;68070;50.954;11.060;2023-04-25T02:58:38;3.40;;;2.20;;
78750;SDS011;68070;50.954;11.060;2023-04-25T03:01:23;8.50;;;4.20;;
78750;SDS011;68070;50.954;11.060;2023-04-25T03:04:08;5.10;;;3.10;;
78750;SDS011;68070;50.954;11.060;2023-04-25T03:06:52;8.10;;;3.80;;
78750;SDS011;68070;50.954;11.060;2023-04-25T03:09:38;5.80;;;3.30;;
78750;SDS011;68070;50.954;11.060;2023-04-25T03:12:22;5.40;;;3.70;;
78750;SDS011;68070;50.954;11.060;2023-04-25T03:15:07;6.70;;;3.50;;
78750;SDS011;68070;50.954;11.060;2023-04-25T03:17:51;4.40;;;3.90;;
78750;SDS011;68070;50.954;11.060;2023-04-25T03:20:35;6.90;;;4.00;;
78750;SDS011;68070;50.954;11.060;2023-04-25T03:23:21;7.30;;;4.00;;
78750;SDS011;68070;50.954;11.060;2023-04-25T03:26:05;5.40;;;4.40;;
78750;SDS011;68070;50.954;11.060;2023-04-25T03:28:50;10.40;;;4.50;;
78750;SDS011;68070;50.954;11.060;2023-04-25T03:31:34;5.70;;;3.60;;
78750;SDS011;68070;50.954;11.060;2023-04-25T03:34:18;6.40;;;4.10;;
78750;SDS011;68070;50.954;11.060;2023-04-25T03:37:03;9.30;;;4.40;;
78750;SDS011;68070;50.954;11.060;2023-04-25T03:39:49;8.70;;;4.10;;
78750;SDS011;68070;50.954;11.060;2023-04-25T03:42:34;10.50;;;4.60;;
78750;SDS011;68070;50.954;11.060;2023-04-25T03:45:18;5.90;;;4.20;;
78750;SDS011;68070;50.954;11.060;2023-04-25T03:48:03;10.90;;;4.30;;
78750;SDS011;68070;50.954;11.060;2023-04-25T03:50:48;4.90;;;3.70;;
78750;SDS011;68070;50.954;11.060;2023-04-25T03:53:33;7.50;;;4.60;;
78750;SDS011;68070;50.954;11.060;2023-04-25T03:56:46;8.60;;;4.40;;
78750;SDS011;68070;50.954;11.060;2023-04-25T03:59:35;7.80;;;4.50;;
78750;SDS011;68070;50.954;11.060;2023-04-25T04:02:20;10.30;;;4.20;;
78750;SDS011;68070;50.954;11.060;2023-04-25T04:05:05;5.20;;;3.20;;
78750;SDS011;68070;50.954;11.060;2023-04-25T04:07:52;5.00;;;3.30;;
78750;SDS011;68070;50.954;11.060;2023-04-25T04:10:37;5.80;;;3.10;;
78750;SDS011;68070;50.954;11.060;2023-04-25T04:13:21;8.20;;;4.10;;
78750;SDS011;68070;50.954;11.060;2023-04-25T04:18:50;2.40;;;1.60;;
78750;SDS011;68070;50.954;11.060;2023-04-25T04:21:34;5.60;;;3.20;;
78750;SDS011;68070;50.954;11.060;2023-04-25T04:24:19;5.90;;;2.60;;
78750;SDS011;68070;50.954;11.060;2023-04-25T04:30:02;5.50;;;2.10;;
78750;SDS011;68070;50.954;11.060;2023-04-25T04:32:56;4.70;;;3.10;;
78750;SDS011;68070;50.954;11.060;2023-04-25T04:35:41;6.60;;;3.40;;
78750;SDS011;68070;50.954;11.060;2023-04-25T04:38:26;5.10;;;2.40;;
78750;SDS011;68070;50.954;11.060;2023-04-25T04:41:12;3.60;;;2.10;;
78750;SDS011;68070;50.954;11.060;2023-04-25T04:44:11;2.70;;;2.00;;
78750;SDS011;68070;50.954;11.060;2023-04-25T04:47:03;5.40;;;2.80;;
78750;SDS011;68070;50.954;11.060;2023-04-25T04:49:58;3.50;;;2.10;;
78750;SDS011;68070;50.954;11.060;2023-04-25T04:53:03;12.30;;;4.60;;
78750;SDS011;68070;50.954;11.060;2023-04-25T04:56:11;4.50;;;2.50;;
78750;SDS011;68070;50.954;11.060;2023-04-25T05:02:12;6.20;;;2.60;;
78750;SDS011;68070;50.954;11.060;2023-04-25T05:05:15;5.30;;;3.00;;
78750;SDS011;68070;50.954;11.060;2023-04-25T05:08:15;3.10;;;2.30;;
78750;SDS011;68070;50.954;11.060;2023-04-25T05:11:11;5.20;;;3.20;;
78750;SDS011;68070;50.954;11.060;2023-04-25T05:14:15;3.90;;;2.20;;
78750;SDS011;68070;50.954;11.060;2023-04-25T05:17:21;4.40;;;2.30;;
78750;SDS011;68070;50.954;11.060;2023-04-25T05:20:35;5.20;;;1.90;;
78750;SDS011;68070;50.954;11.060;2023-04-25T05:23:34;4.40;;;2.90;;
78750;SDS011;68070;50.954;11.060;2023-04-25T05:26:29;3.40;;;2.00;;
78750;SDS011;68070;50.954;11.060;2023-04-25T05:32:41;3.80;;;2.50;;
78750;SDS011;68070;50.954;11.060;2023-04-25T05:35:26;6.50;;;3.00;;
78750;SDS011;68070;50.954;11.060;2023-04-25T05:38:10;5.70;;;3.70;;
78750;SDS011;68070;50.954;11.060;2023-04-25T05:41:15;4.60;;;3.00;;
78750;SDS011;68070;50.954;11.060;2023-04-25T05:44:26;3.80;;;2.80;;
78750;SDS011;68070;50.954;11.060;2023-04-25T05:47:31;4.90;;;2.10;;
78750;SDS011;68070;50.954;11.060;2023-04-25T05:50:23;5.80;;;3.00;;
78750;SDS011;68070;50.954;11.060;2023-04-25T05:53:12;4.00;;;2.40;;
78750;SDS011;68070;50.954;11.060;2023-04-25T05:55:58;4.60;;;3.00;;
78750;SDS011;68070;50.954;11.060;2023-04-25T05:58:44;3.00;;;2.50;;
78750;SDS011;68070;50.954;11.060;2023-04-25T06:01:29;6.30;;;3.30;;
78750;SDS011;68070;50.954;11.060;2023-04-25T06:04:14;4.40;;;2.20;;
78750;SDS011;68070;50.954;11.060;2023-04-25T06:06:58;4.10;;;2.80;;
78750;SDS011;68070;50.954;11.060;2023-04-25T06:09:43;5.50;;;2.70;;
78750;SDS011;68070;50.954;11.060;2023-04-25T06:12:27;5.80;;;2.60;;
78750;SDS011;68070;50.954;11.060;2023-04-25T06:15:12;6.00;;;2.90;;
78750;SDS011;68070;50.954;11.060;2023-04-25T06:17:56;3.80;;;2.00;;
78750;SDS011;68070;50.954;11.060;2023-04-25T06:20:40;5.30;;;2.50;;
78750;SDS011;68070;50.954;11.060;2023-04-25T06:23:25;5.90;;;2.60;;
78750;SDS011;68070;50.954;11.060;2023-04-25T06:26:14;2.40;;;1.70;;
78750;SDS011;68070;50.954;11.060;2023-04-25T06:28:59;6.20;;;3.10;;
78750;SDS011;68070;50.954;11.060;2023-04-25T06:31:44;5.50;;;2.90;;
78750;SDS011;68070;50.954;11.060;2023-04-25T06:34:28;4.50;;;2.40;;
78750;SDS011;68070;50.954;11.060;2023-04-25T06:37:13;3.50;;;1.80;;
78750;SDS011;68070;50.954;11.060;2023-04-25T06:39:57;5.00;;;2.40;;
78750;SDS011;68070;50.954;11.060;2023-04-25T06:42:42;3.90;;;1.90;;
78750;SDS011;68070;50.954;11.060;2023-04-25T06:45:45;2.80;;;2.20;;
78750;SDS011;68070;50.954;11.060;2023-04-25T06:48:30;4.80;;;2.50;;
78750;SDS011;68070;50.954;11.060;2023-04-25T06:51:15;3.50;;;2.50;;
78750;SDS011;68070;50.954;11.060;2023-04-25T06:54:00;4.70;;;2.60;;
78750;SDS011;68070;50.954;11.060;2023-04-25T06:56:53;5.70;;;2.60;;
78750;SDS011;68070;50.954;11.060;2023-04-25T06:59:38;4.80;;;2.60;;
78750;SDS011;68070;50.954;11.060;2023-04-25T07:02:22;7.10;;;2.30;;
78750;SDS011;68070;50.954;11.060;2023-04-25T07:05:07;5.20;;;2.00;;
78750;SDS011;68070;50.954;11.060;2023-04-25T07:07:52;3.40;;;1.80;;
78750;SDS011;68070;50.954;11.060;2023-04-25T07:10:37;3.60;;;2.00;;
78750;SDS011;68070;50.954;11.060;2023-04-25T07:13:21;3.70;;;2.10;;
78750;SDS011;68070;50.954;11.060;2023-04-25T07:16:06;5.50;;;2.50;;
78750;SDS011;68070;50.954;11.060;2023-04-25T07:18:51;4.20;;;2.10;;
78750;SDS011;68070;50.954;11.060;2023-04-25T07:21:36;3.10;;;2.00;;
78750;SDS011;68070;50.954;11.060;2023-04-25T07:24:21;3.60;;;1.90;;
78750;SDS011;68070;50.954;11.060;2023-04-25T07:27:06;4.20;;;2.70;;
78750;SDS011;68070;50.954;11.060;2023-04-25T07:30:07;5.50;;;2.70;;
78750;SDS011;68070;50.954;11.060;2023-04-25T07:32:52;3.70;;;2.50;;
78750;SDS011;68070;50.954;11.060;2023-04-25T07:35:37;6.00;;;2.60;;
78750;SDS011;68070;50.954;11.060;2023-04-25T07:38:21;3.70;;;2.20;;
78750;SDS011;68070;50.954;11.060;2023-04-25T07:41:07;5.40;;;2.50;;
78750;SDS011;68070;50.954;11.060;2023-04-25T07:43:51;4.30;;;2.10;;
78750;SDS011;68070;50.954;11.060;2023-04-25T07:46:37;3.50;;;2.40;;
78750;SDS011;68070;50.954;11.060;2023-04-25T07:49:22;3.20;;;1.80;;
78750;SDS011;68070;50.954;11.060;2023-04-25T07:52:07;4.90;;;2.40;;
78750;SDS011;68070;50.954;11.060;2023-04-25T07:54:52;4.00;;;2.10;;
78750;SDS011;68070;50.954;11.060;2023-04-25T07:57:40;3.70;;;2.20;;
78750;SDS011;68070;50.954;11.060;2023-04-25T08:00:25;4.10;;;2.50;;
78750;SDS011;68070;50.954;11.060;2023-04-25T08:03:11;5.50;;;2.90;;
78750;SDS011;68070;50.954;11.060;2023-04-25T08:05:55;5.00;;;2.40;;
78750;SDS011;68070;50.954;11.060;2023-04-25T08:08:40;2.80;;;2.20;;
78750;SDS011;68070;50.954;11.060;2023-04-25T08:11:26;2.50;;;1.70;;
78750;SDS011;68070;50.954;11.060;2023-04-25T08:14:10;3.80;;;2.00;;
78750;SDS011;68070;50.954;11.060;2023-04-25T08:16:56;4.40;;;2.30;;
78750;SDS011;68070;50.954;11.060;2023-04-25T08:19:41;3.60;;;2.40;;
78750;SDS011;68070;50.954;11.060;2023-04-25T08:22:34;5.80;;;3.10;;
78750;SDS011;68070;50.954;11.060;2023-04-25T08:25:40;6.60;;;2.10;;
78750;SDS011;68070;50.954;11.060;2023-04-25T08:28:25;2.40;;;2.00;;
78750;SDS011;68070;50.954;11.060;2023-04-25T08:31:09;4.90;;;2.70;;
78750;SDS011;68070;50.954;11.060;2023-04-25T08:34:06;7.10;;;2.40;;
78750;SDS011;68070;50.954;11.060;2023-04-25T08:37:01;4.70;;;2.30;;
78750;SDS011;68070;50.954;11.060;2023-04-25T08:39:54;4.60;;;2.10;;
78750;SDS011;68070;50.954;11.060;2023-04-25T08:42:59;7.00;;;3.30;;
78750;SDS011;68070;50.954;11.060;2023-04-25T08:45:47;3.50;;;2.30;;
78750;SDS011;68070;50.954;11.060;2023-04-25T08:48:44;3.30;;;2.10;;
78750;SDS011;68070;50.954;11.060;2023-04-25T08:51:31;5.40;;;2.50;;
78750;SDS011;68070;50.954;11.060;2023-04-25T08:54:17;4.00;;;3.10;;
78750;SDS011;68070;50.954;11.060;2023-04-25T08:57:05;3.50;;;2.60;;
78750;SDS011;68070;50.954;11.060;2023-04-25T08:59:51;3.90;;;2.40;;
78750;SDS011;68070;50.954;11.060;2023-04-25T09:02:37;4.10;;;2.10;;
78750;SDS011;68070;50.954;11.060;2023-04-25T09:05:23;4.10;;;2.30;;
78750;SDS011;68070;50.954;11.060;2023-04-25T09:08:10;3.40;;;2.50;;
78750;SDS011;68070;50.954;11.060;2023-04-25T09:10:54;3.30;;;2.40;;
78750;SDS011;68070;50.954;11.060;2023-04-25T09:13:40;2.50;;;1.70;;
78750;SDS011;68070;50.954;11.060;2023-04-25T09:19:53;3.20;;;2.10;;
78750;SDS011;68070;50.954;11.060;2023-04-25T09:22:41;3.50;;;2.30;;
78750;SDS011;68070;50.954;11.060;2023-04-25T09:25:27;3.10;;;1.90;;
78750;SDS011;68070;50.954;11.060;2023-04-25T09:28:24;2.30;;;1.40;;
78750;SDS011;68070;50.954;11.060;2023-04-25T09:31:10;4.00;;;1.50;;
78750;SDS011;68070;50.954;11.060;2023-04-25T09:34:01;2.20;;;1.30;;
78750;SDS011;68070;50.954;11.060;2023-04-25T09:36:46;2.30;;;1.20;;
78750;SDS011;68070;50.954;11.060;2023-04-25T09:39:42;4.90;;;2.20;;
78750;SDS011;68070;50.954;11.060;2023-04-25T09:42:31;3.00;;;1.30;;
78750;SDS011;68070;50.954;11.060;2023-04-25T09:45:18;3.80;;;1.50;;
78750;SDS011;68070;50.954;11.060;2023-04-25T09:48:03;3.20;;;1.30;;
78750;SDS011;68070;50.954;11.060;2023-04-25T09:51:10;3.70;;;1.80;;
78750;SDS011;68070;50.954;11.060;2023-04-25T09:53:58;6.30;;;2.20;;
78750;SDS011;68070;50.954;11.060;2023-04-25T09:56:51;3.90;;;2.10;;
78750;SDS011;68070;50.954;11.060;2023-04-25T09:59:38;3.70;;;1.90;;
78750;SDS011;68070;50.954;11.060;2023-04-25T10:02:27;4.10;;;2.00;;
78750;SDS011;68070;50.954;11.060;2023-04-25T10:05:14;15.60;;;4.40;;
78750;SDS011;68070;50.954;11.060;2023-04-25T10:08:00;3.80;;;1.80;;
78750;SDS011;68070;50.954;11.060;2023-04-25T10:10:47;4.80;;;1.90;;
78750;SDS011;68070;50.954;11.060;2023-04-25T10:13:35;6.40;;;2.30;;
78750;SDS011;68070;50.954;11.060;2023-04-25T10:16:20;7.30;;;1.90;;
78750;SDS011;68070;50.954;11.060;2023-04-25T10:19:05;8.10;;;2.00;;
78750;SDS011;68070;50.954;11.060;2023-04-25T10:22:34;3.60;;;2.00;;
78750;SDS011;68070;50.954;11.060;2023-04-25T10:25:02;6.40;;;2.00;;
78750;SDS011;68070;50.954;11.060;2023-04-25T10:27:50;5.40;;;2.60;;
78750;SDS011;68070;50.954;11.060;2023-04-25T10:30:35;4.50;;;1.80;;
78750;SDS011;68070;50.954;11.060;2023-04-25T10:33:21;3.60;;;1.70;;
78750;SDS011;68070;50.954;11.060;2023-04-25T10:36:19;8.00;;;2.20;;
78750;SDS011;68070;50.954;11.060;2023-04-25T10:39:08;9.20;;;2.80;;
78750;SDS011;68070;50.954;11.060;2023-04-25T10:44:41;5.40;;;2.00;;
78750;SDS011;68070;50.954;11.060;2023-04-25T10:47:46;9.30;;;1.90;;
78750;SDS011;68070;50.954;11.060;2023-04-25T10:50:37;7.50;;;2.40;;
78750;SDS011;68070;50.954;11.060;2023-04-25T10:53:25;5.10;;;1.70;;
78750;SDS011;68070;50.954;11.060;2023-04-25T10:56:17;3.50;;;1.40;;
78750;SDS011;68070;50.954;11.060;2023-04-25T10:59:04;6.30;;;1.50;;
78750;SDS011;68070;50.954;11.060;2023-04-25T11:01:51;2.50;;;1.50;;
78750;SDS011;68070;50.954;11.060;2023-04-25T11:04:40;6.30;;;1.70;;
78750;SDS011;68070;50.954;11.060;2023-04-25T11:10:35;6.50;;;1.90;;
78750;SDS011;68070;50.954;11.060;2023-04-25T11:13:20;6.80;;;2.40;;
78750;SDS011;68070;50.954;11.060;2023-04-25T11:16:07;9.50;;;2.60;;
78750;SDS011;68070;50.954;11.060;2023-04-25T11:18:51;5.70;;;2.30;;
78750;SDS011;68070;50.954;11.060;2023-04-25T11:21:36;5.40;;;1.80;;
78750;SDS011;68070;50.954;11.060;2023-04-25T11:24:25;6.20;;;1.90;;
78750;SDS011;68070;50.954;11.060;2023-04-25T11:27:13;7.10;;;2.10;;
78750;SDS011;68070;50.954;11.060;2023-04-25T11:29:57;7.00;;;2.40;;
78750;SDS011;68070;50.954;11.060;2023-04-25T11:32:42;9.50;;;2.20;;
78750;SDS011;68070;50.954;11.060;2023-04-25T11:35:27;5.20;;;2.00;;
78750;SDS011;68070;50.954;11.060;2023-04-25T11:38:11;5.70;;;1.80;;
78750;SDS011;68070;50.954;11.060;2023-04-25T11:40:59;5.20;;;1.90;;
78750;SDS011;68070;50.954;11.060;2023-04-25T11:43:43;6.50;;;2.00;;
78750;SDS011;68070;50.954;11.060;2023-04-25T11:46:27;7.50;;;2.70;;
78750;SDS011;68070;50.954;11.060;2023-04-25T11:49:12;6.40;;;2.10;;
78750;SDS011;68070;50.954;11.060;2023-04-25T11:52:01;8.30;;;2.20;;
78750;SDS011;68070;50.954;11.060;2023-04-25T11:54:45;6.00;;;2.00;;
78750;SDS011;68070;50.954;11.060;2023-04-25T11:57:31;4.60;;;2.10;;
78750;SDS011;68070;50.954;11.060;2023-04-25T12:00:16;4.10;;;1.90;;
78750;SDS011;68070;50.954;11.060;2023-04-25T12:03:02;6.30;;;2.00;;
78750;SDS011;68070;50.954;11.060;2023-04-25T12:05:47;3.20;;;1.80;;
78750;SDS011;68070;50.954;11.060;2023-04-25T12:08:32;4.00;;;1.80;;
78750;SDS011;68070;50.954;11.060;2023-04-25T12:11:20;6.50;;;2.20;;
78750;SDS011;68070;50.954;11.060;2023-04-25T12:14:06;6.20;;;2.20;;
78750;SDS011;68070;50.954;11.060;2023-04-25T12:16:50;6.60;;;2.20;;
78750;SDS011;68070;50.954;11.060;2023-04-25T12:19:38;5.70;;;1.90;;
78750;SDS011;68070;50.954;11.060;2023-04-25T12:22:28;4.50;;;1.90;;
78750;SDS011;68070;50.954;11.060;2023-04-25T12:28:24;6.00;;;1.90;;
78750;SDS011;68070;50.954;11.060;2023-04-25T12:31:11;4.50;;;1.80;;
78750;SDS011;68070;50.954;11.060;2023-04-25T12:33:56;3.20;;;1.70;;
78750;SDS011;68070;50.954;11.060;2023-04-25T12:36:40;3.10;;;1.40;;
78750;SDS011;68070;50.954;11.060;2023-04-25T12:39:25;6.00;;;1.80;;
78750;SDS011;68070;50.954;11.060;2023-04-25T12:42:10;3.10;;;1.80;;
78750;SDS011;68070;50.954;11.060;2023-04-25T12:44:57;4.30;;;1.90;;
78750;SDS011;68070;50.954;11.060;2023-04-25T12:47:41;6.10;;;2.10;;
78750;SDS011;68070;50.954;11.060;2023-04-25T12:50:26;8.50;;;2.30;;
78750;SDS011;68070;50.954;11.060;2023-04-25T12:53:11;3.70;;;1.50;;
78750;SDS011;68070;50.954;11.060;2023-04-25T12:55:55;4.10;;;1.80;;
78750;SDS011;68070;50.954;11.060;2023-04-25T12:58:40;9.00;;;2.60;;
78750;SDS011;68070;50.954;11.060;2023-04-25T13:01:25;4.50;;;1.90;;
78750;SDS011;68070;50.954;11.060;2023-04-25T13:04:10;3.40;;;1.90;;
78750;SDS011;68070;50.954;11.060;2023-04-25T13:06:54;3.00;;;1.70;;
78750;SDS011;68070;50.954;11.060;2023-04-25T13:09:39;5.70;;;2.10;;
78750;SDS011;68070;50.954;11.060;2023-04-25T13:12:23;7.10;;;2.40;;
78750;SDS011;68070;50.954;11.060;2023-04-25T13:15:08;3.20;;;1.50;;
78750;SDS011;68070;50.954;11.060;2023-04-25T13:17:55;5.20;;;1.90;;
78750;SDS011;68070;50.954;11.060;2023-04-25T13:20:40;4.20;;;2.00;;
78750;SDS011;68070;50.954;11.060;2023-04-25T13:23:24;4.00;;;1.90;;
78750;SDS011;68070;50.954;11.060;2023-04-25T13:26:10;4.40;;;1.80;;
78750;SDS011;68070;50.954;11.060;2023-04-25T13:28:54;5.00;;;1.80;;
78750;SDS011;68070;50.954;11.060;2023-04-25T13:31:38;4.60;;;1.70;;
78750;SDS011;68070;50.954;11.060;2023-04-25T13:34:22;4.00;;;2.10;;
78750;SDS011;68070;50.954;11.060;2023-04-25T13:37:07;4.10;;;1.80;;
78750;SDS011;68070;50.954;11.060;2023-04-25T13:39:51;5.30;;;1.70;;
78750;SDS011;68070;50.954;11.060;2023-04-25T13:42:36;2.60;;;1.00;;
78750;SDS011;68070;50.954;11.060;2023-04-25T13:45:21;3.50;;;1.50;;
78750;SDS011;68070;50.954;11.060;2023-04-25T13:48:06;2.20;;;1.10;;
78750;SDS011;68070;50.954;11.060;2023-04-25T13:50:50;5.30;;;2.00;;
78750;SDS011;68070;50.954;11.060;2023-04-25T13:53:35;2.70;;;1.70;;
78750;SDS011;68070;50.954;11.060;2023-04-25T13:56:19;2.90;;;1.50;;
78750;SDS011;68070;50.954;11.060;2023-04-25T13:59:04;4.20;;;1.70;;
78750;SDS011;68070;50.954;11.060;2023-04-25T14:01:48;5.70;;;2.40;;
78750;SDS011;68070;50.954;11.060;2023-04-25T14:04:33;5.50;;;2.90;;
78750;SDS011;68070;50.954;11.060;2023-04-25T14:07:17;4.90;;;1.70;;
78750;SDS011;68070;50.954;11.060;2023-04-25T14:10:03;5.60;;;2.20;;
78750;SDS011;68070;50.954;11.060;2023-04-25T14:12:49;2.10;;;1.50;;
78750;SDS011;68070;50.954;11.060;2023-04-25T14:15:33;5.60;;;1.80;;
78750;SDS011;68070;50.954;11.060;2023-04-25T14:18:19;5.30;;;1.10;;
78750;SDS011;68070;50.954;11.060;2023-04-25T14:21:03;4.40;;;1.10;;
78750;SDS011;68070;50.954;11.060;2023-04-25T14:23:49;3.60;;;1.50;;
78750;SDS011;68070;50.954;11.060;2023-04-25T14:26:33;2.90;;;1.40;;
78750;SDS011;68070;50.954;11.060;2023-04-25T14:29:19;4.20;;;1.60;;
78750;SDS011;68070;50.954;11.060;2023-04-25T14:32:04;6.00;;;1.50;;
78750;SDS011;68070;50.954;11.060;2023-04-25T14:34:49;3.50;;;1.60;;
78750;SDS011;68070;50.954;11.060;2023-04-25T14:37:34;5.30;;;2.00;;
78750;SDS011;68070;50.954;11.060;2023-04-25T14:40:18;3.50;;;1.40;;
78750;SDS011;68070;50.954;11.060;2023-04-25T14:43:05;4.50;;;1.70;;
78750;SDS011;68070;50.954;11.060;2023-04-25T14:45:50;5.70;;;1.90;;
78750;SDS011;68070;50.954;11.060;2023-04-25T14:48:35;3.10;;;1.90;;
78750;SDS011;68070;50.954;11.060;2023-04-25T14:51:19;4.70;;;1.80;;
78750;SDS011;68070;50.954;11.060;2023-04-25T14:54:04;3.90;;;2.20;;
78750;SDS011;68070;50.954;11.060;2023-04-25T14:56:48;4.50;;;2.00;;
78750;SDS011;68070;50.954;11.060;2023-04-25T14:59:33;4.10;;;1.50;;
78750;SDS011;68070;50.954;11.060;2023-04-25T15:02:17;5.20;;;1.80;;
78750;SDS011;68070;50.954;11.060;2023-04-25T15:05:01;3.10;;;1.60;;
78750;SDS011;68070;50.954;11.060;2023-04-25T15:07:47;4.60;;;1.50;;
78750;SDS011;68070;50.954;11.060;2023-04-25T15:10:32;3.20;;;1.30;;
78750;SDS011;68070;50.954;11.060;2023-04-25T15:13:17;2.90;;;1.30;;
78750;SDS011;68070;50.954;11.060;2023-04-25T15:16:02;2.80;;;1.50;;
78750;SDS011;68070;50.954;11.060;2023-04-25T15:18:47;3.30;;;1.60;;
78750;SDS011;68070;50.954;11.060;2023-04-25T15:21:31;5.20;;;1.80;;
78750;SDS011;68070;50.954;11.060;2023-04-25T15:24:15;3.50;;;1.20;;
78750;SDS011;68070;50.954;11.060;2023-04-25T15:27:00;5.10;;;1.70;;
78750;SDS011;68070;50.954;11.060;2023-04-25T15:29:44;2.90;;;1.80;;
78750;SDS011;68070;50.954;11.060;2023-04-25T15:32:28;4.10;;;2.00;;
78750;SDS011;68070;50.954;11.060;2023-04-25T15:35:13;7.00;;;1.80;;
78750;SDS011;68070;50.954;11.060;2023-04-25T15:37:59;2.50;;;1.00;;
78750;SDS011;68070;50.954;11.060;2023-04-25T15:40:43;3.50;;;1.50;;
78750;SDS011;68070;50.954;11.060;2023-04-25T15:43:27;3.00;;;1.10;;
78750;SDS011;68070;50.954;11.060;2023-04-25T15:46:13;7.40;;;1.90;;
78750;SDS011;68070;50.954;11.060;2023-04-25T15:48:57;4.50;;;1.50;;
78750;SDS011;68070;50.954;11.060;2023-04-25T15:51:42;2.60;;;1.20;;
78750;SDS011;68070;50.954;11.060;2023-04-25T15:54:28;3.50;;;1.40;;
78750;SDS011;68070;50.954;11.060;2023-04-25T15:57:12;3.60;;;1.50;;
78750;SDS011;68070;50.954;11.060;2023-04-25T15:59:56;4.00;;;1.60;;
78750;SDS011;68070;50.954;11.060;2023-04-25T16:02:41;4.60;;;1.90;;
78750;SDS011;68070;50.954;11.060;2023-04-25T16:05:26;2.80;;;1.60;;
78750;SDS011;68070;50.954;11.060;2023-04-25T16:08:10;3.10;;;1.40;;
78750;SDS011;68070;50.954;11.060;2023-04-25T16:10:55;9.40;;;2.20;;
78750;SDS011;68070;50.954;11.060;2023-04-25T16:13:40;2.90;;;1.30;;
78750;SDS011;68070;50.954;11.060;2023-04-25T16:16:24;4.40;;;1.90;;
78750;SDS011;68070;50.954;11.060;2023-04-25T16:19:09;2.70;;;1.70;;
78750;SDS011;68070;50.954;11.060;2023-04-25T16:21:55;5.30;;;1.90;;
78750;SDS011;68070;50.954;11.060;2023-04-25T16:24:39;5.20;;;2.10;;
78750;SDS011;68070;50.954;11.060;2023-04-25T16:27:24;3.10;;;1.40;;
78750;SDS011;68070;50.954;11.060;2023-04-25T16:30:09;2.60;;;1.10;;
78750;SDS011;68070;50.954;11.060;2023-04-25T16:32:54;4.90;;;1.70;;
78750;SDS011;68070;50.954;11.060;2023-04-25T16:35:40;4.60;;;1.90;;
78750;SDS011;68070;50.954;11.060;2023-04-25T16:38:24;4.10;;;1.30;;
78750;SDS011;68070;50.954;11.060;2023-04-25T16:41:09;4.10;;;2.30;;
78750;SDS011;68070;50.954;11.060;2023-04-25T16:43:55;6.40;;;2.10;;
78750;SDS011;68070;50.954;11.060;2023-04-25T16:46:39;2.30;;;1.40;;
78750;SDS011;68070;50.954;11.060;2023-04-25T16:49:24;4.00;;;1.60;;
78750;SDS011;68070;50.954;11.060;2023-04-25T16:52:09;3.80;;;1.50;;
78750;SDS011;68070;50.954;11.060;2023-04-25T16:54:53;7.30;;;1.50;;
78750;SDS011;68070;50.954;11.060;2023-04-25T16:57:38;1.90;;;1.20;;